Time;durP1;ratioP1;P1;durP2;ratioP2;P2;SDS_P1;SDS_P2;PMS_P1;PMS_P2;Temp;Humidity;BMP_temperature;BMP_pressure;BME280_temperature;BME280_humidity;BME280_pressure;Samples;Min_cycle;Max_cycle;Signal;HPM_P1;HPM_P2
2022/04/05 00:01:35;;;;;;;16.70;5.40;;;7.60;82.90;;;;;;5064080;28;20483;-49
2022/04/05 00:04:02;;;;;;;11.83;3.10;;;7.60;83.60;;;;;;5063137;28;20845;-50
2022/04/05 00:06:28;;;;;;;11.40;4.40;;;7.50;83.60;;;;;;5064651;28;20902;-51
2022/04/05 00:08:55;;;;;;;15.10;3.97;;;7.50;84.10;;;;;;5066345;28;20479;-50
2022/04/05 00:11:22;;;;;;;5.17;3.70;;;7.40;84.70;;;;;;5064717;28;20554;-49
2022/04/05 00:13:48;;;;;;;4.33;3.40;;;7.30;86.10;;;;;;5063481;28;20538;-50
2022/04/05 00:16:16;;;;;;;26.33;5.20;;;7.30;86.50;;;;;;5063876;28;20476;-51
2022/04/05 00:18:43;;;;;;;4.60;2.67;;;7.20;86.90;;;;;;5062258;28;21075;-50
2022/04/05 00:21:10;;;;;;;5.47;4.30;;;7.30;87.90;;;;;;5054165;28;20560;-51
2022/04/05 00:23:37;;;;;;;29.57;5.03;;;7.20;87.90;;;;;;5045712;28;20477;-51
2022/04/05 00:26:03;;;;;;;5.47;4.50;;;7.10;88.80;;;;;;5059669;28;20944;-50
2022/04/05 00:28:30;;;;;;;5.07;3.87;;;7.10;89.20;;;;;;5066310;28;20528;-54
2022/04/05 00:30:57;;;;;;;11.10;4.03;;;7.10;89.00;;;;;;5064071;28;20472;-51
2022/04/05 00:33:25;;;;;;;13.80;5.67;;;7.10;90.10;;;;;;5058233;28;20472;-51
2022/04/05 00:35:52;;;;;;;4.43;3.47;;;6.90;90.30;;;;;;5057390;28;20521;-51
2022/04/05 00:38:19;;;;;;;16.43;7.13;;;6.80;90.60;;;;;;5049006;28;20480;-50
2022/04/05 00:40:45;;;;;;;4.90;4.07;;;6.70;91.00;;;;;;5058337;28;20484;-49
2022/04/05 00:43:12;;;;;;;7.90;6.20;;;6.90;91.20;;;;;;5054347;28;20478;-50
2022/04/05 00:45:39;;;;;;;25.50;4.20;;;6.80;91.10;;;;;;5062596;28;20485;-50
2022/04/05 00:48:06;;;;;;;4.33;3.63;;;6.70;91.10;;;;;;5063785;28;20496;-50
2022/04/05 00:50:37;;;;;;;10.17;7.50;;;6.70;91.30;;;;;;5065491;28;21112;-48
2022/04/05 00:53:06;;;;;;;10.33;4.13;;;6.80;91.40;;;;;;5057205;28;20489;-50
2022/04/05 00:55:34;;;;;;;11.67;7.60;;;6.80;91.40;;;;;;5061638;28;20477;-50
2022/04/05 00:58:02;;;;;;;14.47;7.10;;;6.80;91.50;;;;;;5062894;28;20531;-49
2022/04/05 01:00:29;;;;;;;17.83;8.07;;;6.50;91.90;;;;;;5021121;28;20509;-50
2022/04/05 01:02:58;;;;;;;6.03;5.17;;;6.70;92.20;;;;;;5063479;28;20471;-49
2022/04/05 01:05:27;;;;;;;8.27;5.33;;;6.70;92.40;;;;;;5062760;28;20933;-50
2022/04/05 01:07:59;;;;;;;8.00;3.73;;;6.80;92.30;;;;;;5063688;28;20546;-50
2022/04/05 01:10:28;;;;;;;6.07;4.33;;;6.70;92.60;;;;;;5062576;28;20486;-51
2022/04/05 01:12:55;;;;;;;12.90;6.57;;;6.60;92.60;;;;;;5064185;28;20512;-51
2022/04/05 01:15:22;;;;;;;9.33;7.87;;;6.70;92.60;;;;;;5062443;28;20493;-49
2022/04/05 01:17:48;;;;;;;5.47;4.30;;;6.70;92.80;;;;;;5063824;28;20483;-49
2022/04/05 01:20:15;;;;;;;23.57;4.13;;;6.80;92.50;;;;;;5066527;28;20578;-50
2022/04/05 01:22:49;;;;;;;7.57;6.00;;;6.80;92.70;;;;;;5063872;28;21176;-48
2022/04/05 01:25:19;;;;;;;8.43;4.60;;;6.80;93.10;;;;;;5058869;28;20520;-50
2022/04/05 01:27:46;;;;;;;12.50;7.30;;;6.80;93.10;;;;;;5063749;28;20487;-48
2022/04/05 01:30:13;;;;;;;5.30;4.73;;;6.70;93.40;;;;;;5062318;28;20567;-49
2022/04/05 01:32:40;;;;;;;5.97;3.57;;;6.60;93.60;;;;;;5063607;28;20477;-48
2022/04/05 01:35:08;;;;;;;18.77;3.97;;;6.70;94.10;;;;;;5051560;28;20483;-50
2022/04/05 01:37:35;;;;;;;6.07;4.70;;;6.60;94.20;;;;;;5061227;28;20507;-50
2022/04/05 01:40:02;;;;;;;5.10;3.27;;;6.70;94.00;;;;;;5061224;28;20542;-49
2022/04/05 01:42:30;;;;;;;9.93;4.90;;;6.60;93.70;;;;;;5063750;28;20898;-50
2022/04/05 01:44:57;;;;;;;6.23;3.27;;;6.60;94.10;;;;;;5060834;28;20540;-50
2022/04/05 01:47:23;;;;;;;5.70;4.33;;;6.70;94.20;;;;;;5061707;28;20554;-50
2022/04/05 01:49:50;;;;;;;8.00;3.57;;;6.70;94.30;;;;;;5062325;28;20557;-48
2022/04/05 01:52:18;;;;;;;4.20;3.80;;;6.70;94.60;;;;;;5063021;28;20486;-48
2022/04/05 01:54:45;;;;;;;5.90;4.70;;;6.60;94.30;;;;;;5058630;28;20521;-50
2022/04/05 01:57:12;;;;;;;12.83;4.80;;;6.70;94.60;;;;;;5061191;28;20543;-49
2022/04/05 01:59:41;;;;;;;8.30;6.03;;;6.60;94.50;;;;;;5062228;28;20486;-51
2022/04/05 02:02:09;;;;;;;8.90;6.03;;;;;;;;;;5061091;28;20893;-49
2022/04/05 02:04:37;;;;;;;6.63;5.53;;;6.60;95.00;;;;;;5053352;28;20534;-49
2022/04/05 02:07:10;;;;;;;7.93;4.20;;;6.60;94.90;;;;;;5060872;28;20532;-49
2022/04/05 02:09:37;;;;;;;16.40;8.53;;;6.50;95.30;;;;;;5031773;28;20539;-50
2022/04/05 02:12:04;;;;;;;4.60;3.90;;;6.50;95.30;;;;;;5059668;28;20818;-50
2022/04/05 02:14:31;;;;;;;7.40;5.43;;;6.50;95.50;;;;;;5059017;28;20503;-48
2022/04/05 02:16:59;;;;;;;10.70;4.47;;;6.60;95.50;;;;;;5062250;28;20476;-48
2022/04/05 02:19:26;;;;;;;6.40;4.13;;;6.60;95.50;;;;;;5064065;28;20479;-48
2022/04/05 02:21:52;;;;;;;6.90;4.07;;;6.50;95.50;;;;;;5061402;28;21428;-49
2022/04/05 02:24:19;;;;;;;4.77;3.47;;;6.60;95.50;;;;;;5050166;28;20485;-48
2022/04/05 02:26:46;;;;;;;13.27;11.03;;;6.60;95.40;;;;;;5046907;28;20475;-49
2022/04/05 02:29:13;;;;;;;4.57;4.10;;;6.50;95.70;;;;;;5062345;28;20480;-49
2022/04/05 02:31:39;;;;;;;26.47;5.43;;;6.60;95.90;;;;;;5059400;28;20587;-49
2022/04/05 02:34:08;;;;;;;8.10;6.00;;;6.50;96.00;;;;;;5048613;28;20932;-50
2022/04/05 02:36:34;;;;;;;7.37;4.00;;;6.60;96.10;;;;;;5050194;28;20562;-49
2022/04/05 02:39:01;;;;;;;4.53;3.73;;;6.60;96.00;;;;;;5059580;28;20538;-49
2022/04/05 02:41:28;;;;;;;6.43;4.60;;;6.60;96.30;;;;;;5051014;28;20486;-49
2022/04/05 02:43:55;;;;;;;7.43;6.00;;;6.60;96.30;;;;;;5057270;28;20921;-47
2022/04/05 02:46:22;;;;;;;21.93;7.00;;;6.60;96.30;;;;;;5059905;28;20543;-48
2022/04/05 02:48:53;;;;;;;3.00;2.37;;;6.60;96.50;;;;;;5060016;28;20471;-48
2022/04/05 02:51:22;;;;;;;6.23;4.13;;;6.60;96.40;;;;;;5071253;28;20482;-48
2022/04/05 02:53:49;;;;;;;14.13;5.13;;;6.50;96.60;;;;;;5063579;28;20483;-48
2022/04/05 02:56:16;;;;;;;12.60;11.30;;;6.50;97.00;;;;;;5060260;28;20530;-52
2022/04/05 02:58:43;;;;;;;7.87;6.00;;;6.50;97.20;;;;;;5051089;28;20480;-47
2022/04/05 03:01:10;;;;;;;16.10;6.93;;;6.40;97.10;;;;;;5059851;28;20507;-49
2022/04/05 03:03:37;;;;;;;4.40;3.80;;;6.40;97.20;;;;;;5061262;28;21041;-49
2022/04/05 03:06:04;;;;;;;8.37;6.60;;;6.40;97.10;;;;;;5062126;28;20888;-50
2022/04/05 03:08:32;;;;;;;10.10;5.03;;;6.40;97.40;;;;;;5061122;28;21059;-49
2022/04/05 03:10:59;;;;;;;4.40;3.87;;;6.40;97.30;;;;;;5058241;28;20537;-48
2022/04/05 03:13:25;;;;;;;7.43;5.57;;;6.40;97.40;;;;;;5051488;28;21203;-48
2022/04/05 03:15:52;;;;;;;17.93;11.63;;;6.30;97.40;;;;;;5056191;28;20559;-48
2022/04/05 03:18:19;;;;;;;18.23;16.33;;;6.20;97.60;;;;;;5051943;28;20536;-46
2022/04/05 03:20:46;;;;;;;20.47;16.90;;;6.20;97.50;;;;;;5062171;28;20481;-49
2022/04/05 03:23:13;;;;;;;24.73;13.30;;;6.20;97.50;;;;;;5063089;28;20478;-49
2022/04/05 03:25:41;;;;;;;16.57;12.00;;;6.20;97.70;;;;;;5057350;28;20480;-48
2022/04/05 03:28:07;;;;;;;9.23;4.83;;;6.20;97.70;;;;;;5050319;28;20535;-48
2022/04/05 03:30:35;;;;;;;17.50;8.60;;;6.20;98.00;;;;;;5049996;28;20916;-49
2022/04/05 03:33:01;;;;;;;3.97;3.57;;;6.10;97.90;;;;;;5059734;28;20484;-49
2022/04/05 03:35:28;;;;;;;12.40;11.13;;;6.20;97.90;;;;;;5053149;28;20489;-49
2022/04/05 03:37:55;;;;;;;11.40;5.80;;;6.30;97.80;;;;;;5059751;28;21155;-51
2022/04/05 03:40:22;;;;;;;7.10;6.40;;;6.20;97.90;;;;;;5060904;28;20488;-50
2022/04/05 03:42:50;;;;;;;9.07;7.20;;;6.20;97.70;;;;;;5047868;28;20963;-50
2022/04/05 03:45:16;;;;;;;12.93;8.90;;;6.20;98.00;;;;;;5056518;28;21119;-49
2022/04/05 03:47:43;;;;;;;11.87;8.90;;;6.30;98.10;;;;;;5059331;28;20493;-50
2022/04/05 03:50:10;;;;;;;10.73;8.83;;;6.20;97.90;;;;;;5057174;28;20482;-50
2022/04/05 03:52:37;;;;;;;21.73;10.43;;;6.10;97.90;;;;;;5059769;28;20554;-50
2022/04/05 03:55:04;;;;;;;13.20;11.47;;;6.10;98.20;;;;;;5059367;28;20480;-49
2022/04/05 03:57:31;;;;;;;8.87;7.97;;;6.00;98.10;;;;;;5058550;28;20489;-50
2022/04/05 03:59:59;;;;;;;13.93;5.87;;;6.10;98.10;;;;;;5057188;28;20901;-50
2022/04/05 04:02:26;;;;;;;13.10;10.17;;;6.00;98.10;;;;;;5060633;28;20565;-49
2022/04/05 04:04:53;;;;;;;15.77;10.47;;;6.00;98.30;;;;;;5056536;28;20475;-49
2022/04/05 04:07:19;;;;;;;16.10;7.40;;;6.00;98.50;;;;;;5061032;28;20487;-49
2022/04/05 04:09:46;;;;;;;12.27;10.97;;;6.00;98.40;;;;;;5060599;28;20477;-50
2022/04/05 04:12:13;;;;;;;7.10;6.30;;;5.90;98.50;;;;;;5060248;28;20547;-49
2022/04/05 04:14:40;;;;;;;13.17;6.67;;;6.00;98.40;;;;;;5057391;28;20482;-49
2022/04/05 04:17:08;;;;;;;20.07;18.10;;;6.00;98.30;;;;;;5059705;28;20501;-48
2022/04/05 04:19:34;;;;;;;14.53;11.23;;;5.90;98.40;;;;;;5060682;28;20486;-48
2022/04/05 04:22:01;;;;;;;15.13;8.87;;;6.00;98.50;;;;;;5061677;28;20478;-48
2022/04/05 04:24:28;;;;;;;16.57;13.37;;;6.10;98.30;;;;;;5063206;28;20572;-48
2022/04/05 04:26:55;;;;;;;9.97;7.03;;;6.10;98.40;;;;;;5054211;28;20536;-48
2022/04/05 04:29:22;;;;;;;18.17;10.30;;;6.10;98.20;;;;;;5063274;28;20482;-48
2022/04/05 04:31:48;;;;;;;15.77;12.00;;;6.10;98.20;;;;;;5062272;28;20473;-48
2022/04/05 04:34:17;;;;;;;13.47;11.10;;;6.00;98.30;;;;;;5060972;28;20485;-50
2022/04/05 04:36:44;;;;;;;13.83;9.07;;;5.80;98.50;;;;;;5059900;28;20500;-48
2022/04/05 04:39:10;;;;;;;8.07;5.83;;;5.90;98.30;;;;;;5059937;28;20486;-47
2022/04/05 04:41:37;;;;;;;11.13;8.13;;;5.80;98.00;;;;;;5061943;28;20540;-48
2022/04/05 04:44:04;;;;;;;16.27;8.30;;;5.90;98.20;;;;;;5060799;28;20481;-49
2022/04/05 04:46:31;;;;;;;13.50;8.43;;;5.80;98.30;;;;;;5064636;28;20604;-49
2022/04/05 04:48:58;;;;;;;8.53;7.30;;;5.80;98.40;;;;;;5063849;28;20900;-48
2022/04/05 04:51:26;;;;;;;18.17;8.93;;;5.80;98.20;;;;;;5066869;28;20481;-55
2022/04/05 04:53:53;;;;;;;9.37;7.13;;;5.70;98.30;;;;;;5050789;28;20486;-48
2022/04/05 04:56:20;;;;;;;15.87;13.10;;;5.70;98.30;;;;;;5062704;28;20489;-48
2022/04/05 04:58:46;;;;;;;23.60;13.73;;;5.70;98.40;;;;;;5062724;28;20484;-50
2022/04/05 05:01:13;;;;;;;14.10;11.17;;;5.70;98.50;;;;;;5066410;28;20527;-48
2022/04/05 05:03:40;;;;;;;11.57;6.97;;;5.70;98.50;;;;;;5062088;28;20481;-49
2022/04/05 05:06:07;;;;;;;16.60;7.97;;;5.80;98.70;;;;;;5063364;28;20497;-47
2022/04/05 05:08:35;;;;;;;18.47;15.20;;;5.70;98.20;;;;;;5063567;28;20472;-48
2022/04/05 05:11:02;;;;;;;8.17;5.67;;;5.80;98.30;;;;;;5050355;28;20526;-50
2022/04/05 05:13:31;;;;;;;18.13;11.83;;;5.80;98.60;;;;;;5062136;28;20531;-50
2022/04/05 05:15:58;;;;;;;12.87;10.83;;;5.70;98.50;;;;;;5060248;28;20509;-50
2022/04/05 05:18:25;;;;;;;16.03;12.87;;;5.70;98.60;;;;;;5063656;28;20474;-49
2022/04/05 05:20:51;;;;;;;20.77;11.40;;;5.80;98.60;;;;;;5063765;28;20822;-48
2022/04/05 05:23:18;;;;;;;10.90;8.80;;;5.80;98.70;;;;;;5069083;28;20476;-49
2022/04/05 05:25:47;;;;;;;8.10;5.70;;;5.80;98.60;;;;;;5061749;28;20579;-49
2022/04/05 05:28:14;;;;;;;11.97;6.77;;;5.90;98.50;;;;;;5058598;28;20885;-48
2022/04/05 05:34:03;;;;;;;13.33;10.00;;;6.00;98.80;;;;;;5032944;28;20526;-48
2022/04/05 05:36:30;;;;;;;14.53;7.80;;;5.90;98.80;;;;;;5059020;28;20512;-48
2022/04/05 05:38:56;;;;;;;18.13;8.10;;;6.00;98.80;;;;;;5050984;28;20521;-48
2022/04/05 05:41:24;;;;;;;14.33;12.90;;;6.00;98.90;;;;;;5061152;28;20540;-48
2022/04/05 05:43:51;;;;;;;29.93;9.00;;;5.90;99.10;;;;;;5049754;28;20498;-49
2022/04/05 05:49:39;;;;;;;9.67;8.27;;;6.00;99.30;;;;;;5041938;28;20530;-48
2022/04/05 05:52:07;;;;;;;12.97;10.93;;;6.00;99.10;;;;;;5062430;28;20500;-48
2022/04/05 05:54:33;;;;;;;15.57;9.90;;;5.90;99.30;;;;;;5062095;28;20887;-49
2022/04/05 05:57:01;;;;;;;7.57;6.70;;;6.00;99.40;;;;;;5062269;28;20555;-48
2022/04/05 06:02:52;;;;;;;9.00;4.70;;;6.00;99.30;;;;;;5034240;28;20488;-48
2022/04/05 06:05:19;;;;;;;11.97;5.23;;;6.00;99.10;;;;;;5052891;28;20484;-48
2022/04/05 06:07:46;;;;;;;13.53;11.60;;;5.90;99.20;;;;;;5059355;28;20981;-48
2022/04/05 06:10:14;;;;;;;18.10;9.10;;;5.90;99.10;;;;;;5060670;28;20474;-48
2022/04/05 06:12:45;;;;;;;11.93;8.43;;;6.00;99.10;;;;;;5062450;28;20901;-49
2022/04/05 06:15:13;;;;;;;12.60;8.50;;;6.00;99.30;;;;;;5059643;28;20485;-48
2022/04/05 06:17:41;;;;;;;19.57;12.40;;;5.90;99.30;;;;;;5061438;28;20541;-47
2022/04/05 06:20:10;;;;;;;7.90;6.70;;;6.00;99.30;;;;;;5060145;28;20502;-49
2022/04/05 06:22:44;;;;;;;19.27;11.20;;;5.90;99.50;;;;;;5036883;28;20527;-48
2022/04/05 06:25:11;;;;;;;17.17;12.93;;;5.90;99.30;;;;;;5060709;28;20530;-48
2022/04/05 06:27:39;;;;;;;16.13;10.03;;;6.00;99.20;;;;;;5059854;28;20492;-48
2022/04/05 06:30:09;;;;;;;11.73;7.10;;;6.10;99.20;;;;;;5049929;28;20498;-48
2022/04/05 06:32:36;;;;;;;11.47;6.77;;;6.10;99.30;;;;;;5060260;28;20563;-48
2022/04/05 06:35:05;;;;;;;7.57;6.33;;;6.00;99.30;;;;;;5058946;28;21322;-48
2022/04/05 06:37:32;;;;;;;20.60;15.23;;;6.10;99.20;;;;;;5051501;28;20637;-48
2022/04/05 06:39:58;;;;;;;8.83;7.97;;;6.00;99.30;;;;;;5057831;28;20493;-49
2022/04/05 06:42:25;;;;;;;7.00;4.43;;;6.10;99.40;;;;;;5060513;28;20515;-48
2022/04/05 06:44:53;;;;;;;22.90;13.97;;;6.10;99.40;;;;;;5063630;28;20486;-48
2022/04/05 06:47:21;;;;;;;14.57;12.67;;;6.20;99.50;;;;;;5060640;28;20478;-50
2022/04/05 06:49:48;;;;;;;7.43;5.47;;;6.10;99.40;;;;;;5048516;28;20478;-50
2022/04/05 06:52:15;;;;;;;16.90;7.40;;;6.20;99.20;;;;;;5060135;28;20472;-50
2022/04/05 06:54:42;;;;;;;9.53;8.53;;;6.30;99.50;;;;;;5060413;28;20487;-48
2022/04/05 06:57:09;;;;;;;9.50;7.70;;;6.30;99.60;;;;;;5058448;28;21012;-50
2022/04/05 06:59:36;;;;;;;14.13;6.90;;;6.30;99.40;;;;;;5063607;28;20485;-49
2022/04/05 07:02:03;;;;;;;13.00;7.00;;;6.30;99.50;;;;;;5061404;28;21154;-49
2022/04/05 07:04:31;;;;;;;9.53;7.17;;;6.30;99.30;;;;;;5060285;28;21288;-49
2022/04/05 07:06:58;;;;;;;14.30;6.60;;;6.50;99.20;;;;;;5061397;28;20477;-49
2022/04/05 07:09:25;;;;;;;10.00;7.93;;;6.40;99.10;;;;;;5060840;28;20486;-50
2022/04/05 07:11:52;;;;;;;11.60;10.30;;;6.50;98.90;;;;;;5049685;28;20534;-48
2022/04/05 07:14:18;;;;;;;16.63;8.50;;;6.50;98.90;;;;;;5048375;28;20551;-49
2022/04/05 07:16:45;;;;;;;8.70;5.17;;;6.50;98.90;;;;;;5039727;28;20477;-48
2022/04/05 07:19:12;;;;;;;13.07;6.93;;;6.50;99.20;;;;;;5057180;28;20496;-48
2022/04/05 07:21:40;;;;;;;21.47;10.90;;;6.40;99.30;;;;;;5054447;28;20501;-48
2022/04/05 07:24:07;;;;;;;8.30;5.63;;;6.50;98.80;;;;;;5052998;28;20507;-48
2022/04/05 07:26:34;;;;;;;12.33;6.30;;;6.60;99.10;;;;;;5057019;28;20476;-49
2022/04/05 07:29:00;;;;;;;22.73;11.37;;;6.60;99.10;;;;;;5057581;28;20480;-49
2022/04/05 07:31:27;;;;;;;28.97;10.30;;;6.50;99.20;;;;;;5065654;28;20468;-49
2022/04/05 07:33:54;;;;;;;18.10;6.90;;;6.50;99.00;;;;;;5062423;28;20489;-48
2022/04/05 07:36:20;;;;;;;19.33;7.47;;;6.60;99.50;;;;;;5064113;28;20994;-48
2022/04/05 07:38:48;;;;;;;11.10;9.60;;;6.60;99.40;;;;;;5055462;28;21359;-48
2022/04/05 07:41:15;;;;;;;8.33;7.30;;;6.60;99.20;;;;;;5063553;28;21056;-49
2022/04/05 07:43:42;;;;;;;14.57;7.17;;;6.70;99.40;;;;;;5048287;28;20708;-48
2022/04/05 07:46:10;;;;;;;13.13;8.17;;;6.70;99.60;;;;;;5063217;28;20527;-49
2022/04/05 07:48:36;;;;;;;9.17;7.13;;;6.70;99.40;;;;;;5065962;28;20997;-48
2022/04/05 07:51:03;;;;;;;13.90;6.80;;;6.70;99.60;;;;;;5066551;28;20483;-49
2022/04/05 07:53:31;;;;;;;8.33;6.73;;;6.70;99.70;;;;;;5064011;28;20469;-48
2022/04/05 07:55:59;;;;;;;12.63;8.70;;;6.80;99.50;;;;;;5058314;28;20485;-49
2022/04/05 07:58:25;;;;;;;13.63;7.90;;;6.70;99.60;;;;;;5064990;28;20911;-50
2022/04/05 08:00:53;;;;;;;14.60;12.40;;;6.70;99.50;;;;;;5062313;28;20477;-50
2022/04/05 08:03:21;;;;;;;11.33;8.50;;;6.70;99.60;;;;;;5064363;28;20489;-49
2022/04/05 08:05:48;;;;;;;10.50;6.10;;;6.80;99.90;;;;;;5065139;28;20973;-49
2022/04/05 08:08:15;;;;;;;20.07;14.40;;;6.80;99.40;;;;;;5064751;28;20562;-49
2022/04/05 08:10:42;;;;;;;10.60;8.97;;;;;;;;;;5065412;28;20532;-53
2022/04/05 08:13:11;;;;;;;16.37;10.23;;;6.70;99.40;;;;;;5063040;28;20484;-48
2022/04/05 08:15:39;;;;;;;8.83;6.20;;;6.80;99.80;;;;;;5063396;28;21041;-49
2022/04/05 08:18:06;;;;;;;21.63;11.57;;;6.80;99.70;;;;;;5063144;28;20595;-50
2022/04/05 08:20:34;;;;;;;9.27;6.40;;;7.00;99.60;;;;;;5064214;28;20537;-49
2022/04/05 08:23:08;;;;;;;14.83;8.20;;;7.10;99.90;;;;;;5065467;28;21202;-50
2022/04/05 08:25:35;;;;;;;13.47;5.70;;;7.10;99.50;;;;;;5060454;28;20622;-49
2022/04/05 08:28:02;;;;;;;11.40;7.73;;;7.10;99.50;;;;;;5062640;28;20512;-48
2022/04/05 08:30:31;;;;;;;9.17;8.20;;;7.10;99.90;;;;;;5066583;28;20493;-50
2022/04/05 08:32:58;;;;;;;17.23;10.27;;;7.10;99.40;;;;;;5066677;28;20474;-49
2022/04/05 08:35:26;;;;;;;10.63;8.47;;;7.20;99.60;;;;;;5062954;28;20934;-50
2022/04/05 08:37:53;;;;;;;10.50;7.90;;;7.10;99.80;;;;;;5064575;28;20602;-48
2022/04/05 08:40:23;;;;;;;13.87;7.87;;;7.20;99.80;;;;;;5064727;28;20481;-49
2022/04/05 08:42:52;;;;;;;9.37;7.80;;;7.20;99.70;;;;;;5063907;28;20471;-48
2022/04/05 08:45:20;;;;;;;11.27;8.43;;;7.30;99.90;;;;;;5064010;28;21444;-48
2022/04/05 08:47:51;;;;;;;9.07;6.47;;;7.40;99.90;;;;;;5060419;28;20551;-48
2022/04/05 08:50:20;;;;;;;13.87;10.80;;;7.40;99.50;;;;;;5058789;28;20837;-48
2022/04/05 08:52:47;;;;;;;13.40;11.60;;;7.50;99.90;;;;;;5061686;28;20833;-48
2022/04/05 08:55:15;;;;;;;10.67;8.40;;;7.50;99.50;;;;;;5059875;28;20974;-48
2022/04/05 08:57:42;;;;;;;9.33;7.60;;;7.50;99.50;;;;;;5049609;28;20480;-49
2022/04/05 09:00:10;;;;;;;28.87;9.93;;;;;;;;;;5062495;28;20489;-48
2022/04/05 09:02:37;;;;;;;11.43;10.27;;;7.80;99.80;;;;;;5062305;28;20479;-47
2022/04/05 09:05:40;;;;;;;13.63;10.17;;;7.80;99.90;;;;;;5045700;28;20565;-47
2022/04/05 09:08:18;;;;;;;14.23;11.63;;;7.90;99.50;;;;;;5059737;28;20522;-48
2022/04/05 09:10:46;;;;;;;18.13;10.20;;;8.00;99.90;;;;;;5065015;28;20478;-48
2022/04/05 09:13:16;;;;;;;12.90;9.57;;;8.00;99.60;;;;;;5067992;28;20717;-49
2022/04/05 09:15:44;;;;;;;18.53;11.50;;;8.10;99.70;;;;;;5064479;28;20537;-48
2022/04/05 09:18:11;;;;;;;15.13;9.20;;;8.10;99.30;;;;;;5066769;28;20508;-52
2022/04/05 09:20:49;;;;;;;10.77;9.20;;;8.20;99.40;;;;;;5068074;28;20490;-49
2022/04/05 09:23:27;;;;;;;12.33;7.50;;;8.10;99.40;;;;;;5055658;28;20480;-48
2022/04/05 09:25:58;;;;;;;10.70;9.07;;;8.10;99.10;;;;;;5060579;28;20491;-48
2022/04/05 09:28:33;;;;;;;12.63;7.97;;;8.10;98.90;;;;;;5066578;28;21049;-48
2022/04/05 09:31:03;;;;;;;10.93;6.77;;;8.10;99.20;;;;;;5066496;28;20897;-48
2022/04/05 10:04:04;;;;;;;7.17;5.90;;;8.40;99.50;;;;;;5033380;28;20527;-49
2022/04/05 10:06:32;;;;;;;28.10;7.17;;;8.50;99.90;;;;;;5066002;28;20495;-49
2022/04/05 10:09:00;;;;;;;4.77;4.37;;;8.50;99.60;;;;;;5066500;28;21380;-49
2022/04/05 10:11:27;;;;;;;14.87;7.93;;;;;;;;;;5065920;28;21516;-49
2022/04/05 10:13:54;;;;;;;18.77;7.53;;;8.30;99.30;;;;;;5060685;28;20466;-49
2022/04/05 10:16:24;;;;;;;10.23;7.80;;;8.30;99.10;;;;;;5065220;28;22892;-49
2022/04/05 10:18:52;;;;;;;18.40;7.23;;;8.30;99.50;;;;;;5063389;28;20483;-48
2022/04/05 10:21:22;;;;;;;14.50;7.80;;;8.40;99.50;;;;;;5066352;28;20494;-49
2022/04/05 10:27:13;;;;;;;13.40;10.10;;;;;;;;;;5006161;28;20552;-49
2022/04/05 10:29:42;;;;;;;10.40;8.23;;;8.30;99.60;;;;;;5052126;28;21333;-48
2022/04/05 10:32:11;;;;;;;5.83;5.13;;;;;;;;;;5050771;28;20612;-49
2022/04/05 10:34:43;;;;;;;14.00;10.87;;;8.30;99.20;;;;;;5050116;28;20881;-49
2022/04/05 10:37:16;;;;;;;20.37;16.50;;;8.30;99.90;;;;;;5037813;28;20487;-48
2022/04/05 10:39:43;;;;;;;16.07;12.00;;;8.30;99.70;;;;;;5050999;28;20486;-49
2022/04/05 10:42:21;;;;;;;28.53;13.00;;;8.20;99.70;;;;;;5050045;28;20984;-48
2022/04/05 10:45:02;;;;;;;12.10;8.27;;;;;;;;;;5050826;28;20925;-49
2022/04/05 10:47:29;;;;;;;26.13;12.70;;;8.30;99.60;;;;;;5048555;28;20483;-48
2022/04/05 10:49:56;;;;;;;32.73;16.20;;;8.20;99.50;;;;;;5064297;28;20911;-48
2022/04/05 10:52:26;;;;;;;19.50;12.60;;;8.20;99.90;;;;;;5066228;28;20465;-48
2022/04/05 10:55:11;;;;;;;62.87;18.57;;;8.20;99.50;;;;;;5063752;28;20587;-48
2022/04/05 10:57:39;;;;;;;30.70;15.80;;;;;;;;;;5065331;28;20481;-48
2022/04/05 11:00:11;;;;;;;82.63;30.23;;;8.10;99.60;;;;;;5063404;28;20490;-48
2022/04/05 11:02:43;;;;;;;22.80;16.03;;;8.10;99.80;;;;;;5065978;28;21319;-47
2022/04/05 11:05:43;;;;;;;102.73;32.53;;;8.10;99.90;;;;;;5060229;28;20482;-47
2022/04/05 11:08:16;;;;;;;20.17;17.00;;;8.10;99.90;;;;;;5039438;28;20529;-48
2022/04/05 11:10:54;;;;;;;13.03;10.43;;;8.10;99.90;;;;;;5059400;28;20501;-48
2022/04/05 11:13:22;;;;;;;12.00;10.80;;;;;;;;;;5063508;28;21234;-48
2022/04/05 11:15:54;;;;;;;26.07;23.30;;;8.20;99.90;;;;;;5062300;28;20489;-48
2022/04/05 11:18:22;;;;;;;22.00;17.03;;;8.20;99.90;;;;;;5063936;28;20828;-48
2022/04/05 11:20:51;;;;;;;18.90;11.57;;;8.30;99.90;;;;;;5063743;28;20926;-49
2022/04/05 11:23:21;;;;;;;12.77;9.50;;;8.40;99.90;;;;;;5064088;28;20481;-50
2022/04/05 11:25:48;;;;;;;16.90;11.50;;;8.40;99.90;;;;;;5062105;28;20482;-48
2022/04/05 11:28:17;;;;;;;32.63;15.00;;;8.50;99.90;;;;;;5061772;28;20479;-48
2022/04/05 11:30:49;;;;;;;22.00;11.03;;;8.40;99.90;;;;;;5065871;28;20487;-48
2022/04/05 11:33:23;;;;;;;20.17;15.67;;;8.30;99.90;;;;;;5064123;28;20490;-48
2022/04/05 11:35:51;;;;;;;11.97;9.57;;;8.40;99.90;;;;;;5058682;28;20478;-50
2022/04/05 11:38:31;;;;;;;18.17;10.33;;;8.40;99.90;;;;;;5064818;28;20857;-49
2022/04/05 11:41:00;;;;;;;29.17;21.97;;;8.40;99.90;;;;;;5064415;28;20473;-47
2022/04/05 11:43:29;;;;;;;20.53;18.47;;;8.30;99.90;;;;;;5034336;28;20983;-48
2022/04/05 11:45:57;;;;;;;19.33;16.20;;;;;;;;;;5063091;28;21022;-48
2022/04/05 11:48:26;;;;;;;21.53;15.23;;;8.40;99.90;;;;;;5065869;28;20482;-49
2022/04/05 11:50:53;;;;;;;26.60;9.07;;;8.40;99.90;;;;;;5062743;28;20797;-48
2022/04/05 11:53:21;;;;;;;14.87;8.40;;;8.40;99.90;;;;;;5064305;28;21277;-48
2022/04/05 11:58:54;;;;;;;26.13;17.53;;;8.60;99.90;;;;;;5043640;27;20550;-46
2022/04/05 12:01:24;;;;;;;17.10;8.97;;;8.50;99.90;;;;;;5037653;28;20475;-50
2022/04/05 12:03:54;;;;;;;11.43;7.33;;;8.50;99.90;;;;;;5037943;28;20491;-48
2022/04/05 12:06:22;;;;;;;33.47;21.53;;;8.30;99.90;;;;;;5042070;28;20488;-48
2022/04/05 12:08:51;;;;;;;18.07;11.87;;;8.40;99.90;;;;;;5042323;28;20486;-48
2022/04/05 12:11:20;;;;;;;32.83;17.07;;;8.40;99.90;;;;;;5042620;28;20490;-49
2022/04/05 12:13:58;;;;;;;22.00;12.93;;;8.40;99.90;;;;;;5050873;28;20640;-50
2022/04/05 12:16:26;;;;;;;11.83;7.97;;;8.40;99.90;;;;;;5064515;28;20528;-49
2022/04/05 12:18:54;;;;;;;11.90;9.63;;;8.40;99.90;;;;;;5059474;27;20939;-48
2022/04/05 12:21:22;;;;;;;25.63;15.33;;;8.50;99.90;;;;;;5087316;28;20475;-49
2022/04/05 12:23:49;;;;;;;20.23;13.03;;;8.60;99.90;;;;;;5069832;27;21032;-48
2022/04/05 12:26:18;;;;;;;16.47;12.50;;;8.50;99.90;;;;;;5072304;28;20859;-47
2022/04/05 12:28:48;;;;;;;17.57;13.20;;;8.60;99.90;;;;;;5061490;28;20477;-48
2022/04/05 12:31:18;;;;;;;14.70;7.90;;;8.70;99.90;;;;;;5059989;28;20894;-48
2022/04/05 12:33:56;;;;;;;10.87;7.50;;;8.80;99.90;;;;;;5062157;28;21079;-49
2022/04/05 12:36:25;;;;;;;11.53;8.33;;;8.80;99.90;;;;;;5057628;28;20481;-48
2022/04/05 12:38:52;;;;;;;14.10;9.03;;;8.80;99.90;;;;;;5062407;28;20564;-49
2022/04/05 12:41:20;;;;;;;10.20;6.93;;;8.90;99.90;;;;;;5072485;27;20991;-49
2022/04/05 12:44:09;;;;;;;16.07;9.43;;;8.90;99.90;;;;;;5065760;28;20509;-48
2022/04/05 12:46:43;;;;;;;12.83;10.00;;;8.90;99.90;;;;;;5038654;28;20467;-51
2022/04/05 12:49:22;;;;;;;18.70;12.80;;;8.80;99.90;;;;;;5042096;28;21512;-49
2022/04/05 12:51:50;;;;;;;7.00;6.17;;;8.90;99.90;;;;;;5045634;28;21028;-50
2022/04/05 12:54:29;;;;;;;7.23;6.47;;;9.00;99.90;;;;;;5041627;28;21092;-50
2022/04/05 12:57:17;;;;;;;16.93;12.87;;;8.90;99.90;;;;;;5044528;28;21042;-49
2022/04/05 12:59:44;;;;;;;16.70;8.43;;;;;;;;;;5055734;28;20471;-49
2022/04/05 13:02:19;;;;;;;14.93;8.43;;;9.00;99.90;;;;;;5050539;28;20474;-47
2022/04/05 13:04:46;;;;;;;29.37;7.33;;;9.00;99.90;;;;;;5057189;28;20477;-47
2022/04/05 13:07:13;;;;;;;13.20;5.97;;;9.10;99.90;;;;;;5062914;28;20482;-48
2022/04/05 13:09:40;;;;;;;7.80;7.00;;;9.10;99.90;;;;;;5051479;28;21407;-49
2022/04/05 13:12:08;;;;;;;17.03;9.93;;;9.10;99.90;;;;;;5044546;28;20479;-51
2022/04/05 13:14:35;;;;;;;10.70;8.30;;;9.10;99.90;;;;;;5045894;28;21004;-49
2022/04/05 13:17:03;;;;;;;12.47;8.73;;;9.20;99.90;;;;;;5032518;28;20473;-49
2022/04/05 13:19:31;;;;;;;16.90;13.57;;;9.20;99.90;;;;;;5045587;28;20503;-48
2022/04/05 13:21:58;;;;;;;15.90;12.10;;;9.10;99.90;;;;;;5071609;28;20537;-48
2022/04/05 13:24:38;;;;;;;16.27;8.77;;;9.20;99.90;;;;;;5043956;28;21069;-51
2022/04/05 13:27:05;;;;;;;11.07;8.77;;;9.20;99.90;;;;;;5044930;28;20818;-48
2022/04/05 13:29:33;;;;;;;20.97;16.13;;;9.30;99.90;;;;;;5049253;28;20485;-49
2022/04/05 13:32:02;;;;;;;5.83;5.27;;;9.20;99.90;;;;;;5067279;28;20479;-49
2022/04/05 13:34:31;;;;;;;12.73;11.03;;;9.20;99.90;;;;;;5043432;28;20926;-50
2022/04/05 13:36:58;;;;;;;6.10;5.50;;;9.20;99.90;;;;;;5043017;28;20887;-50
2022/04/05 13:39:27;;;;;;;13.27;8.20;;;9.20;99.90;;;;;;5043021;28;20483;-48
2022/04/05 13:41:54;;;;;;;14.70;13.17;;;9.20;99.90;;;;;;5045074;28;20476;-47
2022/04/05 13:44:22;;;;;;;16.03;13.80;;;9.10;99.90;;;;;;5044933;28;21026;-47